createdAt,value
2022-08-09T03:40:42.599Z,3.28
2022-08-09T04:21:38.618Z,3.00
2022-08-09T06:48:00.757Z,1.90
2022-08-09T07:02:41.872Z,1.90
2022-08-09T07:06:02.316Z,1.50
2022-08-09T07:08:49.600Z,1.75
2022-08-09T07:11:52.297Z,2.08
2022-08-09T07:14:44.087Z,1.63
2022-08-09T07:17:39.922Z,1.40
2022-08-09T07:20:40.288Z,1.40
2022-08-09T07:23:31.431Z,0.93
2022-08-09T07:26:23.795Z,1.50
2022-08-09T07:29:12.194Z,1.52
2022-08-09T07:32:03.666Z,1.73
2022-08-09T07:34:52.250Z,1.65
2022-08-09T07:37:44.089Z,1.60
2022-08-09T07:40:54.073Z,1.20
2022-08-09T07:43:49.940Z,1.88
2022-08-09T07:46:43.484Z,1.83
2022-08-09T07:49:30.867Z,2.15
2022-08-09T07:52:21.219Z,1.98
2022-08-09T07:55:09.961Z,1.20
2022-08-09T07:57:59.403Z,1.43
2022-08-09T08:00:56.008Z,1.70
2022-08-09T08:03:57.014Z,1.90
2022-08-09T08:06:56.098Z,1.42
2022-08-09T08:09:53.632Z,2.07
2022-08-09T08:12:51.989Z,1.65
2022-08-09T08:15:39.698Z,2.20
2022-08-09T08:18:29.958Z,2.42
2022-08-09T08:21:18.976Z,1.83
2022-08-09T08:24:16.572Z,1.50
2022-08-09T08:27:04.614Z,1.85
2022-08-09T08:30:08.498Z,2.40
2022-08-09T08:33:00.719Z,1.42
2022-08-09T08:35:58.225Z,1.10
2022-08-09T08:38:47.607Z,1.10
2022-08-09T08:41:50.398Z,1.50
2022-08-09T08:44:50.332Z,1.60
2022-08-09T08:47:50.185Z,1.45
2022-08-09T08:50:49.291Z,1.45
2022-08-09T08:53:40.361Z,1.13
2022-08-09T08:57:11.481Z,0.60
2022-08-09T09:00:20.868Z,0.82
2022-08-09T09:03:22.690Z,1.33
2022-08-09T09:06:23.069Z,1.38
2022-08-09T09:09:21.251Z,1.10
2022-08-09T09:12:20.677Z,0.95
2022-08-09T09:15:09.473Z,0.93
2022-08-09T09:17:59.823Z,1.30
2022-08-09T09:20:47.375Z,0.60
2022-08-09T09:23:49.919Z,0.60
2022-08-09T09:26:54.447Z,0.57
2022-08-09T09:30:14.128Z,1.00
2022-08-09T09:33:01.231Z,0.88
2022-08-09T09:36:01.843Z,0.95
2022-08-09T09:38:52.664Z,0.75
2022-08-09T09:41:49.890Z,1.38
2022-08-09T09:44:41.191Z,0.85
2022-08-09T09:47:29.845Z,1.02
2022-08-09T09:50:23.204Z,0.80
2022-08-09T09:56:04.273Z,1.95
2022-08-09T09:58:53.500Z,0.60
2022-08-09T10:01:45.119Z,0.73
2022-08-09T10:04:32.792Z,0.75
2022-08-09T10:07:27.502Z,0.38
2022-08-09T10:10:31.426Z,0.68
2022-08-09T10:13:24.664Z,1.08
2022-08-09T10:16:56.541Z,0.68
2022-08-09T10:19:41.627Z,0.77
2022-08-09T10:22:34.651Z,0.60
2022-08-09T10:25:24.331Z,1.02
2022-08-09T10:28:38.901Z,0.77
2022-08-09T10:34:36.389Z,0.82
2022-08-09T10:37:24.603Z,0.55
2022-08-09T10:40:35.118Z,0.70
2022-08-09T10:43:22.536Z,0.65
2022-08-09T10:46:31.139Z,0.70
2022-08-09T10:49:50.056Z,0.63
2022-08-09T10:53:04.185Z,0.70
2022-08-09T10:56:11.468Z,0.70
2022-08-09T10:59:55.579Z,0.80
2022-08-09T11:03:14.037Z,0.70
2022-08-09T11:06:12.927Z,0.95
2022-08-09T11:09:16.071Z,0.60
2022-08-09T11:14:56.153Z,1.10
2022-08-09T11:18:10.252Z,1.20
2022-08-09T11:25:47.396Z,0.57
2022-08-09T11:28:54.242Z,0.68
2022-08-09T11:31:52.587Z,0.88
2022-08-09T11:34:48.351Z,0.98
2022-08-09T11:37:57.967Z,0.95
2022-08-09T11:40:45.607Z,0.90
2022-08-09T11:43:33.819Z,0.75
2022-08-09T11:46:32.932Z,0.70
2022-08-09T11:49:42.800Z,0.52
2022-08-09T11:53:15.193Z,0.60
2022-08-09T11:56:19.515Z,0.85
2022-08-09T11:59:09.914Z,0.93
2022-08-09T12:02:17.699Z,0.77
2022-08-09T12:05:06.234Z,0.80
2022-08-09T12:07:54.773Z,0.70
2022-08-09T12:10:53.741Z,0.43
2022-08-09T12:14:07.896Z,0.65
2022-08-09T12:16:47.431Z,0.47
2022-08-09T12:19:41.751Z,0.73
2022-08-09T12:22:31.204Z,1.42
2022-08-09T12:25:31.888Z,0.82
2022-08-09T12:28:58.298Z,1.08
2022-08-09T12:32:01.585Z,0.85
2022-08-09T12:34:51.656Z,0.98
2022-08-09T12:37:50.389Z,1.10
2022-08-09T12:40:45.088Z,0.75
2022-08-09T12:44:05.611Z,0.80
2022-08-09T12:46:49.283Z,0.90
2022-08-09T12:49:38.172Z,0.85
2022-08-09T12:52:40.306Z,0.85
2022-08-09T12:56:11.919Z,0.45
2022-08-09T12:59:11.828Z,0.40
2022-08-09T13:01:59.448Z,0.60
2022-08-09T13:04:59.640Z,0.25
2022-08-09T13:08:08.631Z,0.47
2022-08-09T13:11:00.010Z,0.25
2022-08-09T13:14:38.072Z,0.73
2022-08-09T13:16:56.534Z,1.02
2022-08-09T13:20:10.101Z,1.23
2022-08-09T13:23:05.564Z,0.60
2022-08-09T13:26:02.596Z,0.50
2022-08-09T13:29:06.498Z,0.88
2022-08-09T13:32:16.375Z,0.80
2022-08-09T13:35:02.638Z,0.75
2022-08-09T13:37:52.842Z,0.43
2022-08-09T13:41:55.278Z,0.90
2022-08-09T13:43:49.649Z,0.52
2022-08-09T13:47:16.375Z,1.20
2022-08-09T13:49:57.374Z,0.40
2022-08-09T13:52:48.823Z,0.60
2022-08-09T13:55:38.933Z,0.60
2022-08-09T13:58:26.463Z,0.47
2022-08-09T14:01:56.002Z,0.43
2022-08-09T14:04:23.967Z,0.60
2022-08-09T14:10:05.963Z,0.63
2022-08-09T14:12:53.419Z,0.20
2022-08-09T14:16:09.834Z,0.60
2022-08-09T14:18:50.376Z,0.60
2022-08-09T14:24:32.485Z,0.90
2022-08-09T14:27:21.295Z,0.77
2022-08-09T14:30:35.341Z,0.50
2022-08-09T14:33:21.874Z,0.70
2022-08-09T14:36:20.292Z,0.60
2022-08-09T14:39:08.981Z,0.50
2022-08-09T14:41:56.568Z,0.55
2022-08-09T14:44:48.976Z,0.40
2022-08-09T14:47:49.719Z,3.58
2022-08-09T14:50:45.549Z,3.17
2022-08-09T15:02:03.321Z,1.10
2022-08-09T15:04:53.406Z,0.30
2022-08-09T15:07:40.950Z,0.52
2022-08-09T15:10:33.445Z,0.73
2022-08-09T15:13:21.021Z,1.02
2022-08-09T15:16:10.932Z,0.88
2022-08-09T15:19:02.615Z,0.57
2022-08-09T15:22:04.029Z,0.98
2022-08-09T15:24:53.335Z,0.68
2022-08-09T15:27:47.641Z,0.43
2022-08-09T15:30:48.254Z,0.70
2022-08-09T15:34:31.116Z,1.10
2022-08-09T15:37:01.160Z,0.28
2022-08-09T15:39:54.699Z,0.47
2022-08-09T15:42:43.599Z,0.75
2022-08-09T15:46:08.027Z,0.60
2022-08-09T15:48:39.566Z,0.73
2022-08-09T15:52:03.772Z,0.75
2022-08-09T15:54:46.192Z,0.85
2022-08-09T15:57:51.369Z,0.75
2022-08-09T16:00:39.189Z,1.13
2022-08-09T16:03:38.251Z,0.70
2022-08-09T16:06:35.045Z,0.50
2022-08-09T16:09:32.664Z,1.00
2022-08-09T16:12:31.243Z,1.05
2022-08-09T16:16:09.894Z,0.80
2022-08-09T16:21:17.524Z,0.95
2022-08-09T16:24:30.290Z,0.82
2022-08-09T16:27:21.683Z,1.08
2022-08-09T16:30:14.909Z,0.63
2022-08-09T16:54:16.465Z,2.30
2022-08-09T16:59:44.132Z,2.22
2022-08-09T17:17:26.829Z,1.23
2022-08-09T17:40:50.496Z,1.77
2022-08-09T17:43:39.131Z,1.23
2022-08-09T17:46:34.131Z,1.25
2022-08-09T17:54:57.762Z,1.35
2022-08-09T18:06:31.840Z,1.10
2022-08-09T18:20:59.138Z,1.48
2022-08-09T20:05:46.690Z,1.83
2022-08-09T20:28:48.731Z,1.80
2022-08-09T20:32:28.753Z,1.80
2022-08-09T21:07:12.024Z,1.77
2022-08-09T21:56:33.951Z,2.10
2022-08-09T22:05:37.721Z,1.50
2022-08-09T22:08:30.361Z,1.20
2022-08-09T22:26:07.033Z,1.38
2022-08-09T23:28:40.944Z,1.20
2022-08-09T23:48:26.436Z,1.90
